MOL Continuity — 3ESS2 — position and weather

sailwx.info

Track history (hours):
 
Tides and Currents Weather Stations Pressure Air Temp Water Temp Dewpoint Dewpoint Depression Visibility Wind Speed Wind Dir Waves Ship Positions

MOL Continuity

Last reported at 2018-Jun-20 05:30 UTC. Time now 2018-Jun-20 05:28 UTC.
Position N 01°16' E 103°46'.

Length 320 m; draft 11 m.

Type: Ship (hazmat cat A). MMSI: 370407000.

Date/timePositionNaut miles runAvg speedWind from/ knotsBaromVisibWave heightAir tempDewpointWater temp
2018-Jun-20 05:30N 01°16' E 103°46'0 0.0
2018-Jun-20 04:59N 01°16' E 103°46'0 0.0
2018-Jun-20 04:29N 01°16' E 103°46'0 0.0
2018-Jun-20 03:50N 01°16' E 103°46'0 0.0
2018-Jun-20 03:30N 01°16' E 103°46'0 0.0
2018-Jun-20 02:56N 01°16' E 103°46'0 0.0
2018-Jun-20 02:30N 01°16' E 103°46'0 0.0
2018-Jun-20 01:59N 01°16' E 103°46'0 0.0
2018-Jun-20 01:30N 01°16' E 103°46'0 0.0
2018-Jun-20 00:57N 01°16' E 103°46'0 0.0
2018-Jun-20 00:30N 01°16' E 103°46'0 0.0
2018-Jun-19 23:59N 01°16' E 103°46'0 0.0
2018-Jun-19 23:27N 01°16' E 103°46'0 0.0
2018-Jun-19 22:59N 01°16' E 103°46'0 0.0
2018-Jun-19 22:29N 01°16' E 103°46'0 0.0
2018-Jun-19 21:59N 01°16' E 103°46'0 0.0
2018-Jun-19 21:30N 01°16' E 103°46'0 0.1
2018-Jun-19 20:59N 01°16' E 103°46'0 0.0
2018-Jun-19 20:30N 01°16' E 103°46'0 0.1
2018-Jun-19 19:54N 01°16' E 103°46'0 0.0
2018-Jun-19 19:30N 01°16' E 103°46'0 0.0
2018-Jun-19 18:59N 01°16' E 103°46'0 0.0
2018-Jun-19 18:30N 01°16' E 103°46'0 0.0
2018-Jun-19 18:00N 01°16' E 103°46'1 1.6
2018-Jun-19 17:30N 01°15' E 103°46'3 6.7
2018-Jun-19 17:00N 01°13' E 103°49'5 9.7
2018-Jun-19 16:30N 01°13' E 103°53'4 7.7
2018-Jun-19 16:00N 01°15' E 103°57'510.2
2018-Jun-19 15:31N 01°16' E 104°02'712.4
2018-Jun-19 14:58N 01°17' E 104°09'613.1
2018-Jun-19 14:30N 01°17' E 104°15'712.2
2018-Jun-19 13:58N 01°20' E 104°21'613.4
2018-Jun-19 13:30N 01°24' E 104°25'917.0
2018-Jun-19 12:58N 01°30' E 104°32'  
2018-Jun-16 01:03N 22°15' E 119°48'519.0
2018-Jun-16 00:48N 22°18' E 119°51'619.7
2018-Jun-16 00:30N 22°23' E 119°55'917.7
2018-Jun-15 23:59N 22°29' E 120°02'817.5
2018-Jun-15 23:31N 22°32' E 120°11'612.6
2018-Jun-15 23:01N 22°33' E 120°17'2 3.2
2018-Jun-15 22:21N 22°33' E 120°20'0 0.3
2018-Jun-15 21:57N 22°33' E 120°20'0 0.0
2018-Jun-15 21:27N 22°33' E 120°20'0 0.0
2018-Jun-15 20:51N 22°33' E 120°20'0 0.0
2018-Jun-15 20:21N 22°33' E 120°20'0 0.0
2018-Jun-15 19:45N 22°33' E 120°20'0 0.0
2018-Jun-15 19:27N 22°33' E 120°20'0 0.0
2018-Jun-15 18:57N 22°33' E 120°20'0 0.0
2018-Jun-15 18:27N 22°33' E 120°20'0 0.0
2018-Jun-15 17:33N 22°33' E 120°20'0 0.1
2018-Jun-15 17:27N 22°33' E 120°20'0 0.0
2018-Jun-15 16:57N 22°33' E 120°20'0 0.0
2018-Jun-15 16:27N 22°33' E 120°20'0 0.0
2018-Jun-15 15:51N 22°33' E 120°20'0 0.0
2018-Jun-15 15:27N 22°33' E 120°20'0 0.0
2018-Jun-15 14:57N 22°33' E 120°20'0 0.0
2018-Jun-15 14:21N 22°33' E 120°20'0 0.1
2018-Jun-15 13:57N 22°33' E 120°20'0 0.0
2018-Jun-15 13:27N 22°33' E 120°20'0 0.1
2018-Jun-15 12:57N 22°33' E 120°20'0 0.0
2018-Jun-15 12:27N 22°33' E 120°20'0 0.0
2018-Jun-15 11:57N 22°33' E 120°20'0 0.0
2018-Jun-15 11:27N 22°33' E 120°20'0 0.0
2018-Jun-15 10:57N 22°33' E 120°20'0 0.0
2018-Jun-15 10:27N 22°33' E 120°20'0 0.0
2018-Jun-15 09:57N 22°33' E 120°20'0 0.0
2018-Jun-15 08:33N 22°33' E 120°20'0 0.2
2018-Jun-15 08:15N 22°33' E 120°20'0 0.1
2018-Jun-15 07:45N 22°33' E 120°20'0 0.0
2018-Jun-15 07:27N 22°33' E 120°20'0 0.0
2018-Jun-15 06:57N 22°33' E 120°20'0 0.1
2018-Jun-15 06:21N 22°33' E 120°20'0 0.1
2018-Jun-15 05:51N 22°33' E 120°20'0 0.2
2018-Jun-15 05:30N 22°33' E 120°20'2 4.7
2018-Jun-15 04:59N 22°33' E 120°17'4 7.9
2018-Jun-15 04:30N 22°32' E 120°13'611.5
2018-Jun-15 04:00N 22°33' E 120°07'2 3.7
2018-Jun-15 03:29N 22°33' E 120°05'2 3.1
2018-Jun-15 03:00N 22°34' E 120°06'2 3.8
2018-Jun-15 02:30N 22°36' E 120°07'1 2.4
2018-Jun-15 02:00N 22°37' E 120°07'0 0.4
2018-Jun-15 01:30N 22°37' E 120°08'1 2.0
2018-Jun-15 01:00N 22°36' E 120°08'1 1.1
2018-Jun-15 00:30N 22°36' E 120°08'1 1.6
2018-Jun-15 00:00N 22°35' E 120°07'1 2.1
2018-Jun-14 23:30N 22°35' E 120°08'1 1.3
2018-Jun-14 23:00N 22°35' E 120°08'1 1.3
2018-Jun-14 22:30N 22°35' E 120°07'1 1.8
2018-Jun-14 22:00N 22°36' E 120°08'1 1.5
2018-Jun-14 21:30N 22°36' E 120°08'1 1.9
2018-Jun-14 21:00N 22°36' E 120°07'1 2.8
2018-Jun-14 20:30N 22°38' E 120°07'0 0.5
2018-Jun-14 20:00N 22°37' E 120°07'1 1.7
2018-Jun-14 19:30N 22°37' E 120°08'0 0.8
2018-Jun-14 19:00N 22°37' E 120°08'0 0.9
2018-Jun-14 18:30N 22°37' E 120°08'1 1.2
2018-Jun-14 18:00N 22°38' E 120°07'0 0.2
2018-Jun-14 17:30N 22°38' E 120°07'1 1.2
2018-Jun-14 17:00N 22°38' E 120°08'0 0.9
2018-Jun-14 16:30N 22°38' E 120°07'0 0.6
2018-Jun-14 16:00N 22°38' E 120°07'0 0.9
2018-Jun-14 15:30N 22°38' E 120°07'1 1.1
2018-Jun-14 15:00N 22°38' E 120°07'0 0.5
2018-Jun-14 14:30N 22°38' E 120°07'0 0.7
2018-Jun-14 13:59N 22°38' E 120°06'2 3.5
2018-Jun-14 13:30N 22°38' E 120°05'2 3.6
2018-Jun-14 13:00N 22°40' E 120°04'2 3.7
2018-Jun-14 12:30N 22°42' E 120°04'1 1.4
2018-Jun-14 12:00N 22°42' E 120°05'4 8.1
2018-Jun-14 11:30N 22°39' E 120°07'4 8.6
2018-Jun-14 11:00N 22°36' E 120°10'4 7.4
2018-Jun-14 10:29N 22°33' E 120°13'1 1.1
2018-Jun-14 09:59N 22°33' E 120°12'1 1.7
2018-Jun-14 09:30N 22°32' E 120°11'3 5.2
2018-Jun-14 09:00N 22°35' E 120°11'510.2
2018-Jun-14 08:30N 22°39' E 120°08'510.7
2018-Jun-14 08:00N 22°43' E 120°05'611.4
2018-Jun-14 07:29N 22°48' E 120°01'611.7
2018-Jun-14 07:00N 22°53' E 119°58'  
2018-Jun-11 20:40N 33°43' E 134°52'718.2
2018-Jun-11 20:17N 33°50' E 134°54'518.0
2018-Jun-11 20:00N 33°55' E 134°55'1017.6
2018-Jun-11 19:27N 34°04' E 134°56'817.3
2018-Jun-11 19:00N 34°12' E 134°58'713.3
2018-Jun-11 18:30N 34°19' E 134°59'918.0
2018-Jun-11 18:01N 34°26' E 135°05'918.8
2018-Jun-11 17:30N 34°33' E 135°13'613.0
2018-Jun-11 17:00N 34°39' E 135°16'1 1.7
2018-Jun-11 16:28N 34°39' E 135°15'0 0.0
2018-Jun-11 15:58N 34°39' E 135°15'0 0.0
2018-Jun-11 15:28N 34°39' E 135°15'0 0.0
2018-Jun-11 14:58N 34°39' E 135°15'0 0.0
2018-Jun-11 14:28N 34°39' E 135°15'0 0.0
2018-Jun-11 13:58N 34°39' E 135°15'0 0.0
2018-Jun-11 13:28N 34°39' E 135°15'0 0.0
2018-Jun-11 12:55N 34°39' E 135°15'0 0.0
2018-Jun-11 12:28N 34°39' E 135°15'0 0.0
2018-Jun-11 11:58N 34°39' E 135°15'0 0.0
2018-Jun-11 11:28N 34°39' E 135°15'0 0.0
2018-Jun-11 10:58N 34°39' E 135°15'0 0.0
2018-Jun-11 10:28N 34°39' E 135°15'0 0.0
2018-Jun-11 09:58N 34°39' E 135°15'0 0.8
2018-Jun-11 09:30N 34°39' E 135°15'3 6.5
2018-Jun-11 09:01N 34°36' E 135°17'5 9.0
2018-Jun-11 08:31N 34°33' E 135°14'611.8
2018-Jun-11 08:01N 34°28' E 135°09'815.7
2018-Jun-11 07:30N 34°22' E 135°04'917.0
2018-Jun-11 07:00N 34°14' E 134°60'510.4
2018-Jun-11 06:30N 34°09' E 134°60'612.2
2018-Jun-11 06:00N 34°03' E 134°59'612.1
2018-Jun-11 05:30N 33°57' E 134°58'612.0
2018-Jun-11 05:01N 33°51' E 134°58'816.2
2018-Jun-11 04:29N 33°44' E 135°04'714.4
2018-Jun-11 04:00N 33°39' E 135°10'24016.2
2018-Jun-10 13:12N 35°04' E 139°42'716.1
2018-Jun-10 12:46N 35°11' E 139°46'410.3
2018-Jun-10 12:25N 35°14' E 139°47'512.7
2018-Jun-10 12:00N 35°19' E 139°43'713.3
2018-Jun-10 11:30N 35°25' E 139°44'917.3
2018-Jun-10 11:00N 35°32' E 139°51'611.5
2018-Jun-10 10:30N 35°36' E 139°46'0 0.9
2018-Jun-10 09:57N 35°36' E 139°46'0 0.0
2018-Jun-10 09:30N 35°36' E 139°46'0 0.0
2018-Jun-10 09:00N 35°36' E 139°46'0 0.0
2018-Jun-10 08:30N 35°36' E 139°46'0 0.0
2018-Jun-10 07:57N 35°36' E 139°46'0 0.0
2018-Jun-10 07:30N 35°36' E 139°46'0 0.0
2018-Jun-10 07:00N 35°36' E 139°46'0 0.0
2018-Jun-10 06:27N 35°36' E 139°46'0 0.0
2018-Jun-10 06:00N 35°36' E 139°46'  
Track history (hours):
 
Tides and Currents Weather Stations Pressure Air Temp Water Temp Dewpoint Dewpoint Depression Visibility Wind Speed Wind Dir Waves Ship Positions

MOL Continuity

Last reported at 2018-Jun-20 05:30 UTC. Time now 2018-Jun-20 05:28 UTC.
Position N 01°16' E 103°46'.

Length 320 m; draft 11 m.

Type: Ship (hazmat cat A). MMSI: 370407000.

Date/timePositionNaut miles runAvg speedWind from/ knotsBaromVisibWave heightAir tempDewpointWater temp
2018-Jun-20 05:30N 01°16' E 103°46'0 0.0
2018-Jun-20 04:59N 01°16' E 103°46'0 0.0
2018-Jun-20 04:29N 01°16' E 103°46'0 0.0
2018-Jun-20 03:50N 01°16' E 103°46'0 0.0
2018-Jun-20 03:30N 01°16' E 103°46'0 0.0
2018-Jun-20 02:56N 01°16' E 103°46'0 0.0
2018-Jun-20 02:30N 01°16' E 103°46'0 0.0
2018-Jun-20 01:59N 01°16' E 103°46'0 0.0
2018-Jun-20 01:30N 01°16' E 103°46'0 0.0
2018-Jun-20 00:57N 01°16' E 103°46'0 0.0
2018-Jun-20 00:30N 01°16' E 103°46'0 0.0
2018-Jun-19 23:59N 01°16' E 103°46'0 0.0
2018-Jun-19 23:27N 01°16' E 103°46'0 0.0
2018-Jun-19 22:59N 01°16' E 103°46'0 0.0
2018-Jun-19 22:29N 01°16' E 103°46'0 0.0
2018-Jun-19 21:59N 01°16' E 103°46'0 0.0
2018-Jun-19 21:30N 01°16' E 103°46'0 0.1
2018-Jun-19 20:59N 01°16' E 103°46'0 0.0
2018-Jun-19 20:30N 01°16' E 103°46'0 0.1
2018-Jun-19 19:54N 01°16' E 103°46'0 0.0
2018-Jun-19 19:30N 01°16' E 103°46'0 0.0
2018-Jun-19 18:59N 01°16' E 103°46'0 0.0
2018-Jun-19 18:30N 01°16' E 103°46'0 0.0
2018-Jun-19 18:00N 01°16' E 103°46'1 1.6
2018-Jun-19 17:30N 01°15' E 103°46'3 6.7
2018-Jun-19 17:00N 01°13' E 103°49'5 9.7
2018-Jun-19 16:30N 01°13' E 103°53'4 7.7
2018-Jun-19 16:00N 01°15' E 103°57'510.2
2018-Jun-19 15:31N 01°16' E 104°02'712.4
2018-Jun-19 14:58N 01°17' E 104°09'613.1
2018-Jun-19 14:30N 01°17' E 104°15'712.2
2018-Jun-19 13:58N 01°20' E 104°21'613.4
2018-Jun-19 13:30N 01°24' E 104°25'917.0
2018-Jun-19 12:58N 01°30' E 104°32'  
2018-Jun-16 01:03N 22°15' E 119°48'519.0
2018-Jun-16 00:48N 22°18' E 119°51'619.7
2018-Jun-16 00:30N 22°23' E 119°55'917.7
2018-Jun-15 23:59N 22°29' E 120°02'817.5
2018-Jun-15 23:31N 22°32' E 120°11'612.6
2018-Jun-15 23:01N 22°33' E 120°17'2 3.2
2018-Jun-15 22:21N 22°33' E 120°20'0 0.3
2018-Jun-15 21:57N 22°33' E 120°20'0 0.0
2018-Jun-15 21:27N 22°33' E 120°20'0 0.0
2018-Jun-15 20:51N 22°33' E 120°20'0 0.0
2018-Jun-15 20:21N 22°33' E 120°20'0 0.0
2018-Jun-15 19:45N 22°33' E 120°20'0 0.0
2018-Jun-15 19:27N 22°33' E 120°20'0 0.0
2018-Jun-15 18:57N 22°33' E 120°20'0 0.0
2018-Jun-15 18:27N 22°33' E 120°20'0 0.0
2018-Jun-15 17:33N 22°33' E 120°20'0 0.1
2018-Jun-15 17:27N 22°33' E 120°20'0 0.0
2018-Jun-15 16:57N 22°33' E 120°20'0 0.0
2018-Jun-15 16:27N 22°33' E 120°20'0 0.0
2018-Jun-15 15:51N 22°33' E 120°20'0 0.0
2018-Jun-15 15:27N 22°33' E 120°20'0 0.0
2018-Jun-15 14:57N 22°33' E 120°20'0 0.0
2018-Jun-15 14:21N 22°33' E 120°20'0 0.1
2018-Jun-15 13:57N 22°33' E 120°20'0 0.0
2018-Jun-15 13:27N 22°33' E 120°20'0 0.1
2018-Jun-15 12:57N 22°33' E 120°20'0 0.0
2018-Jun-15 12:27N 22°33' E 120°20'0 0.0
2018-Jun-15 11:57N 22°33' E 120°20'0 0.0
2018-Jun-15 11:27N 22°33' E 120°20'0 0.0
2018-Jun-15 10:57N 22°33' E 120°20'0 0.0
2018-Jun-15 10:27N 22°33' E 120°20'0 0.0
2018-Jun-15 09:57N 22°33' E 120°20'0 0.0
2018-Jun-15 08:33N 22°33' E 120°20'0 0.2
2018-Jun-15 08:15N 22°33' E 120°20'0 0.1
2018-Jun-15 07:45N 22°33' E 120°20'0 0.0
2018-Jun-15 07:27N 22°33' E 120°20'0 0.0
2018-Jun-15 06:57N 22°33' E 120°20'0 0.1
2018-Jun-15 06:21N 22°33' E 120°20'0 0.1
2018-Jun-15 05:51N 22°33' E 120°20'0 0.2
2018-Jun-15 05:30N 22°33' E 120°20'2 4.7
2018-Jun-15 04:59N 22°33' E 120°17'4 7.9
2018-Jun-15 04:30N 22°32' E 120°13'611.5
2018-Jun-15 04:00N 22°33' E 120°07'2 3.7
2018-Jun-15 03:29N 22°33' E 120°05'2 3.1
2018-Jun-15 03:00N 22°34' E 120°06'2 3.8
2018-Jun-15 02:30N 22°36' E 120°07'1 2.4
2018-Jun-15 02:00N 22°37' E 120°07'0 0.4
2018-Jun-15 01:30N 22°37' E 120°08'1 2.0
2018-Jun-15 01:00N 22°36' E 120°08'1 1.1
2018-Jun-15 00:30N 22°36' E 120°08'1 1.6
2018-Jun-15 00:00N 22°35' E 120°07'1 2.1
2018-Jun-14 23:30N 22°35' E 120°08'1 1.3
2018-Jun-14 23:00N 22°35' E 120°08'1 1.3
2018-Jun-14 22:30N 22°35' E 120°07'1 1.8
2018-Jun-14 22:00N 22°36' E 120°08'1 1.5
2018-Jun-14 21:30N 22°36' E 120°08'1 1.9
2018-Jun-14 21:00N 22°36' E 120°07'1 2.8
2018-Jun-14 20:30N 22°38' E 120°07'0 0.5
2018-Jun-14 20:00N 22°37' E 120°07'1 1.7
2018-Jun-14 19:30N 22°37' E 120°08'0 0.8
2018-Jun-14 19:00N 22°37' E 120°08'0 0.9
2018-Jun-14 18:30N 22°37' E 120°08'1 1.2
2018-Jun-14 18:00N 22°38' E 120°07'0 0.2
2018-Jun-14 17:30N 22°38' E 120°07'1 1.2
2018-Jun-14 17:00N 22°38' E 120°08'0 0.9
2018-Jun-14 16:30N 22°38' E 120°07'0 0.6
2018-Jun-14 16:00N 22°38' E 120°07'0 0.9
2018-Jun-14 15:30N 22°38' E 120°07'1 1.1
2018-Jun-14 15:00N 22°38' E 120°07'0 0.5
2018-Jun-14 14:30N 22°38' E 120°07'0 0.7
2018-Jun-14 13:59N 22°38' E 120°06'2 3.5
2018-Jun-14 13:30N 22°38' E 120°05'2 3.6
2018-Jun-14 13:00N 22°40' E 120°04'2 3.7
2018-Jun-14 12:30N 22°42' E 120°04'1 1.4
2018-Jun-14 12:00N 22°42' E 120°05'4 8.1
2018-Jun-14 11:30N 22°39' E 120°07'4 8.6
2018-Jun-14 11:00N 22°36' E 120°10'4 7.4
2018-Jun-14 10:29N 22°33' E 120°13'1 1.1
2018-Jun-14 09:59N 22°33' E 120°12'1 1.7
2018-Jun-14 09:30N 22°32' E 120°11'3 5.2
2018-Jun-14 09:00N 22°35' E 120°11'510.2
2018-Jun-14 08:30N 22°39' E 120°08'510.7
2018-Jun-14 08:00N 22°43' E 120°05'611.4
2018-Jun-14 07:29N 22°48' E 120°01'611.7
2018-Jun-14 07:00N 22°53' E 119°58'  
2018-Jun-11 20:40N 33°43' E 134°52'718.2
2018-Jun-11 20:17N 33°50' E 134°54'518.0
2018-Jun-11 20:00N 33°55' E 134°55'1017.6
2018-Jun-11 19:27N 34°04' E 134°56'817.3
2018-Jun-11 19:00N 34°12' E 134°58'713.3
2018-Jun-11 18:30N 34°19' E 134°59'918.0
2018-Jun-11 18:01N 34°26' E 135°05'918.8
2018-Jun-11 17:30N 34°33' E 135°13'613.0
2018-Jun-11 17:00N 34°39' E 135°16'1 1.7
2018-Jun-11 16:28N 34°39' E 135°15'0 0.0
2018-Jun-11 15:58N 34°39' E 135°15'0 0.0
2018-Jun-11 15:28N 34°39' E 135°15'0 0.0
2018-Jun-11 14:58N 34°39' E 135°15'0 0.0
2018-Jun-11 14:28N 34°39' E 135°15'0 0.0
2018-Jun-11 13:58N 34°39' E 135°15'0 0.0
2018-Jun-11 13:28N 34°39' E 135°15'0 0.0
2018-Jun-11 12:55N 34°39' E 135°15'0 0.0
2018-Jun-11 12:28N 34°39' E 135°15'0 0.0
2018-Jun-11 11:58N 34°39' E 135°15'0 0.0
2018-Jun-11 11:28N 34°39' E 135°15'0 0.0
2018-Jun-11 10:58N 34°39' E 135°15'0 0.0
2018-Jun-11 10:28N 34°39' E 135°15'0 0.0
2018-Jun-11 09:58N 34°39' E 135°15'0 0.8
2018-Jun-11 09:30N 34°39' E 135°15'3 6.5
2018-Jun-11 09:01N 34°36' E 135°17'5 9.0
2018-Jun-11 08:31N 34°33' E 135°14'611.8
2018-Jun-11 08:01N 34°28' E 135°09'815.7
2018-Jun-11 07:30N 34°22' E 135°04'917.0
2018-Jun-11 07:00N 34°14' E 134°60'510.4
2018-Jun-11 06:30N 34°09' E 134°60'612.2
2018-Jun-11 06:00N 34°03' E 134°59'612.1
2018-Jun-11 05:30N 33°57' E 134°58'612.0
2018-Jun-11 05:01N 33°51' E 134°58'816.2
2018-Jun-11 04:29N 33°44' E 135°04'714.4
2018-Jun-11 04:00N 33°39' E 135°10'24016.2
2018-Jun-10 13:12N 35°04' E 139°42'716.1
2018-Jun-10 12:46N 35°11' E 139°46'410.3
2018-Jun-10 12:25N 35°14' E 139°47'512.7
2018-Jun-10 12:00N 35°19' E 139°43'713.3
2018-Jun-10 11:30N 35°25' E 139°44'917.3
2018-Jun-10 11:00N 35°32' E 139°51'611.5
2018-Jun-10 10:30N 35°36' E 139°46'0 0.9
2018-Jun-10 09:57N 35°36' E 139°46'0 0.0
2018-Jun-10 09:30N 35°36' E 139°46'0 0.0
2018-Jun-10 09:00N 35°36' E 139°46'0 0.0
2018-Jun-10 08:30N 35°36' E 139°46'0 0.0
2018-Jun-10 07:57N 35°36' E 139°46'0 0.0
2018-Jun-10 07:30N 35°36' E 139°46'0 0.0
2018-Jun-10 07:00N 35°36' E 139°46'0 0.0
2018-Jun-10 06:27N 35°36' E 139°46'0 0.0
2018-Jun-10 06:00N 35°36' E 139°46'  

Dump ship's entire track history